Time;durP1;ratioP1;P1;durP2;ratioP2;P2;SDS_P1;SDS_P2;PMS_P1;PMS_P2;Temp;Humidity;BMP_temperature;BMP_pressure;BME280_temperature;BME280_humidity;BME280_pressure;Samples;Min_cycle;Max_cycle;Signal;HPM_P1;HPM_P2
2022/08/04 00:02:10;;;;;;;0.00;0.00;;;;;;;;;;5087434;28;20243;-66
2022/08/04 00:04:41;;;;;;;0.00;0.00;;;;;;;;;;5081999;28;20233;-67
2022/08/04 00:07:09;;;;;;;0.00;0.00;;;;;;;;;;5087571;28;20260;-66
2022/08/04 00:09:38;;;;;;;0.00;0.00;;;;;;;;;;5082259;28;20207;-66
2022/08/04 00:12:06;;;;;;;0.00;0.00;;;;;;;;;;5087235;28;20244;-66
2022/08/04 00:14:34;;;;;;;0.00;0.00;;;;;;;;;;5082036;28;20199;-67
2022/08/04 00:17:03;;;;;;;0.00;0.00;;;;;;;;;;5086942;28;20241;-67
2022/08/04 00:19:32;;;;;;;0.00;0.00;;;;;;;;;;5081941;28;20306;-67
2022/08/04 00:22:00;;;;;;;0.00;0.00;;;;;;;;;;5086401;28;20438;-67
2022/08/04 00:24:29;;;;;;;0.00;0.00;;;;;;;;;;5084698;28;20410;-66
2022/08/04 00:26:56;;;;;;;0.00;0.00;;;;;;;;;;5089949;28;20297;-65
2022/08/04 00:29:22;;;;;;;0.00;0.00;;;;;;;;;;5086590;28;20280;-66
2022/08/04 00:31:49;;;;;;;0.00;0.00;;;;;;;;;;5088999;28;20300;-66
2022/08/04 00:34:16;;;;;;;0.00;0.00;;;;;;;;;;5087593;28;20199;-67
2022/08/04 00:36:44;;;;;;;0.00;0.00;;;;;;;;;;5087961;28;20288;-66
2022/08/04 00:39:11;;;;;;;0.00;0.00;;;;;;;;;;5088365;28;20196;-65
2022/08/04 00:41:43;;;;;;;0.00;0.00;;;;;;;;;;5087428;28;20505;-66
2022/08/04 00:44:17;;;;;;;0.00;0.00;;;;;;;;;;5088377;28;20214;-66
2022/08/04 00:47:00;;;;;;;0.00;0.00;;;;;;;;;;5087930;28;20258;-65
2022/08/04 00:49:33;;;;;;;0.00;0.00;;;;;;;;;;5085462;28;20270;-66
2022/08/04 00:52:09;;;;;;;0.00;0.00;;;;;;;;;;5089909;28;20238;-66
2022/08/04 00:54:40;;;;;;;0.00;0.00;;;;;;;;;;5085563;28;20195;-67
2022/08/04 00:57:15;;;;;;;0.00;0.00;;;;;;;;;;5090654;28;20344;-66
2022/08/04 00:59:49;;;;;;;0.00;0.00;;;;;;;;;;5085143;28;20254;-67
2022/08/04 01:02:20;;;;;;;0.00;0.00;;;;;;;;;;5090586;28;20244;-67
2022/08/04 01:04:56;;;;;;;0.00;0.00;;;;;;;;;;5084976;28;20245;-67
2022/08/04 01:07:36;;;;;;;0.00;0.00;;;;;;;;;;5090707;28;20453;-67
2022/08/04 01:10:03;;;;;;;0.00;0.00;;;;;;;;;;5084860;28;20191;-68
2022/08/04 01:12:40;;;;;;;0.00;0.00;;;;;;;;;;5093407;28;20290;-66
2022/08/04 01:15:07;;;;;;;0.00;0.00;;;;;;;;;;5095108;28;20394;-66
2022/08/04 01:17:37;;;;;;;0.00;0.00;;;;;;;;;;5120399;28;20202;-65
2022/08/04 01:20:06;;;;;;;0.00;0.00;;;;;;;;;;5105217;28;20229;-66
2022/08/04 01:22:51;;;;;;;0.00;0.00;;;;;;;;;;5093355;28;20392;-67
2022/08/04 01:25:29;;;;;;;0.00;0.00;;;;;;;;;;5095855;28;20355;-65
2022/08/04 01:28:06;;;;;;;0.00;0.00;;;;;;;;;;5117754;28;20194;-66
2022/08/04 01:30:36;;;;;;;0.65;0.65;;;;;;;;;;5098153;28;20267;-66
2022/08/04 01:33:03;;;;;;;0.00;0.00;;;;;;;;;;5116551;28;20229;-66
2022/08/04 01:35:35;;;;;;;0.40;0.40;;;;;;;;;;5097157;28;20459;-66
2022/08/04 01:38:07;;;;;;;0.00;0.00;;;;;;;;;;5116784;28;20274;-66
2022/08/04 01:40:34;;;;;;;0.00;0.00;;;;;;;;;;5098114;28;20257;-66
2022/08/04 01:43:01;;;;;;;0.00;0.00;;;;;;;;;;5116420;28;20199;-65
2022/08/04 01:45:29;;;;;;;0.00;0.00;;;;;;;;;;5096966;28;20261;-65
2022/08/04 01:47:57;;;;;;;0.00;0.00;;;;;;;;;;5116980;28;20222;-66
2022/08/04 01:50:26;;;;;;;0.00;0.00;;;;;;;;;;5096361;28;20271;-67
2022/08/04 01:52:53;;;;;;;0.00;0.00;;;;;;;;;;5117258;28;20191;-67
2022/08/04 01:55:20;;;;;;;0.00;0.00;;;;;;;;;;5096151;28;20210;-66
2022/08/04 01:57:48;;;;;;;0.00;0.00;;;;;;;;;;5118282;28;20221;-67
2022/08/04 02:00:16;;;;;;;0.00;0.00;;;;;;;;;;5095200;28;20210;-65
2022/08/04 02:02:44;;;;;;;0.00;0.00;;;;;;;;;;5118700;28;20252;-66
2022/08/04 02:05:12;;;;;;;0.00;0.00;;;;;;;;;;5094033;28;20222;-67
2022/08/04 02:07:45;;;;;;;0.00;0.00;;;;;;;;;;5118946;28;20262;-66
2022/08/04 02:10:17;;;;;;;0.00;0.00;;;;;;;;;;5094211;28;20201;-67
2022/08/04 02:12:52;;;;;;;0.00;0.00;;;;;;;;;;5118461;28;20190;-66
2022/08/04 02:15:24;;;;;;;0.00;0.00;;;;;;;;;;5095182;28;20197;-66
2022/08/04 02:17:54;;;;;;;0.00;0.00;;;;;;;;;;5117314;28;20282;-67
2022/08/04 02:20:24;;;;;;;0.00;0.00;;;;;;;;;;5095647;28;20290;-67
2022/08/04 02:22:53;;;;;;;0.10;0.10;;;;;;;;;;5117439;28;20375;-66
2022/08/04 02:25:22;;;;;;;0.00;0.00;;;;;;;;;;5095126;28;20237;-66
2022/08/04 02:27:54;;;;;;;0.00;0.00;;;;;;;;;;5117500;28;20430;-65
2022/08/04 02:30:21;;;;;;;0.00;0.00;;;;;;;;;;5095047;28;20191;-67
2022/08/04 02:32:49;;;;;;;0.00;0.00;;;;;;;;;;5117242;28;20199;-66
2022/08/04 02:35:17;;;;;;;0.00;0.00;;;;;;;;;;5094254;28;20205;-66
2022/08/04 02:37:47;;;;;;;0.00;0.00;;;;;;;;;;5118016;28;20191;-66
2022/08/04 02:40:18;;;;;;;0.00;0.00;;;;;;;;;;5094202;28;20358;-66
2022/08/04 02:42:46;;;;;;;0.00;0.00;;;;;;;;;;5117579;28;20205;-66
2022/08/04 02:45:12;;;;;;;0.00;0.00;;;;;;;;;;5093769;28;20227;-66
2022/08/04 02:47:39;;;;;;;0.00;0.00;;;;;;;;;;5117044;28;20216;-67
2022/08/04 02:50:08;;;;;;;0.00;0.00;;;;;;;;;;5093890;28;20203;-67
2022/08/04 02:52:35;;;;;;;0.00;0.00;;;;;;;;;;5118611;28;20467;-66
2022/08/04 02:55:03;;;;;;;0.00;0.00;;;;;;;;;;5103084;28;20296;-66
2022/08/04 02:57:30;;;;;;;0.00;0.00;;;;;;;;;;5108375;28;20433;-66
2022/08/04 03:00:03;;;;;;;0.00;0.00;;;;;;;;;;5102990;28;20202;-66
2022/08/04 03:02:34;;;;;;;0.00;0.00;;;;;;;;;;5091338;28;20219;-66
2022/08/04 03:05:03;;;;;;;0.00;0.00;;;;;;;;;;5102937;28;20249;-67
2022/08/04 03:07:40;;;;;;;0.00;0.00;;;;;;;;;;5108400;28;20297;-67
2022/08/04 03:10:23;;;;;;;0.00;0.00;;;;;;;;;;5092568;28;20195;-68
2022/08/04 03:13:17;;;;;;;0.00;0.00;;;;;;;;;;5116529;28;20198;-65
2022/08/04 03:15:54;;;;;;;0.00;0.00;;;;;;;;;;5097687;28;20324;-66
2022/08/04 03:18:35;;;;;;;0.00;0.00;;;;;;;;;;5111733;28;20190;-66
2022/08/04 03:21:25;;;;;;;0.00;0.00;;;;;;;;;;5099674;28;20256;-67
2022/08/04 03:24:07;;;;;;;0.00;0.00;;;;;;;;;;5107906;28;20214;-67
2022/08/04 03:27:07;;;;;;;0.00;0.00;;;;;;;;;;5103994;28;20596;-66
2022/08/04 03:29:43;;;;;;;0.00;0.00;;;;;;;;;;5102956;28;20386;-67
2022/08/04 03:32:23;;;;;;;0.00;0.00;;;;;;;;;;5107856;28;20257;-66
2022/08/04 03:35:02;;;;;;;0.00;0.00;;;;;;;;;;5102871;28;20190;-67
2022/08/04 03:37:38;;;;;;;0.00;0.00;;;;;;;;;;5107816;28;20238;-66
2022/08/04 03:40:26;;;;;;;0.00;0.00;;;;;;;;;;5096404;28;20190;-66
2022/08/04 03:43:06;;;;;;;0.00;0.00;;;;;;;;;;5102491;28;20199;-67
2022/08/04 03:45:53;;;;;;;0.00;0.00;;;;;;;;;;5095884;28;20238;-67
2022/08/04 03:48:29;;;;;;;0.00;0.00;;;;;;;;;;5112073;28;20195;-67
2022/08/04 03:54:19;;;;;;;0.00;0.00;;;;;;;;;;5100597;28;20516;-67
2022/08/04 03:56:59;;;;;;;0.08;0.08;;;;;;;;;;5103761;28;20240;-65
2022/08/04 03:59:46;;;;;;;0.00;0.00;;;;;;;;;;5103535;28;20191;-66
2022/08/04 04:02:40;;;;;;;0.00;0.00;;;;;;;;;;5081813;28;20465;-67
2022/08/04 04:05:21;;;;;;;0.00;0.00;;;;;;;;;;5065486;28;20202;-67
2022/08/04 04:08:00;;;;;;;0.00;0.00;;;;;;;;;;5090673;28;20415;-66
2022/08/04 04:10:43;;;;;;;0.00;0.00;;;;;;;;;;5094532;28;20252;-66
2022/08/04 04:13:14;;;;;;;0.00;0.00;;;;;;;;;;5112693;28;20210;-67
2022/08/04 04:15:50;;;;;;;0.00;0.00;;;;;;;;;;5096668;28;20336;-66
2022/08/04 04:18:21;;;;;;;0.00;0.00;;;;;;;;;;5111906;28;20191;-66
2022/08/04 04:21:00;;;;;;;0.00;0.00;;;;;;;;;;5097452;28;20269;-67
2022/08/04 04:23:42;;;;;;;0.00;0.00;;;;;;;;;;5110762;28;20471;-66
2022/08/04 04:26:20;;;;;;;0.00;0.00;;;;;;;;;;5100097;28;20238;-67
2022/08/04 04:28:58;;;;;;;0.00;0.00;;;;;;;;;;5107998;28;20190;-66
2022/08/04 04:31:34;;;;;;;0.00;0.00;;;;;;;;;;5101961;28;20238;-66
2022/08/04 04:34:06;;;;;;;0.00;0.00;;;;;;;;;;5105751;28;20232;-66
2022/08/04 04:36:38;;;;;;;0.00;0.00;;;;;;;;;;5102973;28;20305;-66
2022/08/04 04:39:10;;;;;;;0.00;0.00;;;;;;;;;;5105481;28;20339;-65
2022/08/04 04:41:42;;;;;;;0.03;0.03;;;;;;;;;;5103235;28;20241;-67
2022/08/04 04:44:38;;;;;;;0.00;0.00;;;;;;;;;;5104633;28;20367;-66
2022/08/04 04:47:11;;;;;;;0.00;0.00;;;;;;;;;;5106835;28;20313;-66
2022/08/04 04:49:40;;;;;;;0.00;0.00;;;;;;;;;;5102147;28;20198;-66
2022/08/04 04:52:09;;;;;;;0.10;0.10;;;;;;;;;;5106989;28;20248;-66
2022/08/04 04:54:38;;;;;;;0.00;0.00;;;;;;;;;;5101953;28;20469;-66
2022/08/04 04:57:07;;;;;;;0.00;0.00;;;;;;;;;;5106840;28;20237;-66
2022/08/04 04:59:34;;;;;;;0.00;0.00;;;;;;;;;;5101702;28;20210;-66
2022/08/04 05:02:15;;;;;;;0.00;0.00;;;;;;;;;;5106340;28;20238;-65
2022/08/04 05:04:57;;;;;;;0.00;0.00;;;;;;;;;;5100540;28;20262;-65
2022/08/04 05:07:43;;;;;;;0.00;0.00;;;;;;;;;;5094251;28;20450;-67
2022/08/04 05:10:17;;;;;;;0.00;0.00;;;;;;;;;;5092000;28;20290;-66
2022/08/04 05:13:02;;;;;;;0.00;0.00;;;;;;;;;;5119475;28;20258;-66
2022/08/04 05:15:31;;;;;;;0.00;0.00;;;;;;;;;;5097691;28;20244;-67
2022/08/04 05:17:58;;;;;;;0.00;0.00;;;;;;;;;;5117113;28;20214;-65
2022/08/04 05:20:27;;;;;;;0.00;0.00;;;;;;;;;;5097041;28;20261;-67
2022/08/04 05:22:56;;;;;;;0.00;0.00;;;;;;;;;;5117789;28;20230;-68
2022/08/04 05:25:25;;;;;;;0.00;0.00;;;;;;;;;;5097048;28;20270;-67
2022/08/04 05:27:56;;;;;;;0.00;0.00;;;;;;;;;;5118193;28;20205;-66
2022/08/04 05:30:23;;;;;;;0.00;0.00;;;;;;;;;;5096618;28;20505;-67
2022/08/04 05:32:51;;;;;;;0.00;0.00;;;;;;;;;;5118447;28;20190;-67
2022/08/04 05:35:21;;;;;;;0.00;0.00;;;;;;;;;;5096088;28;20208;-65
2022/08/04 05:37:49;;;;;;;0.00;0.00;;;;;;;;;;5118198;28;20187;-66
2022/08/04 05:40:18;;;;;;;0.00;0.00;;;;;;;;;;5095714;28;20209;-66
2022/08/04 05:42:44;;;;;;;0.00;0.00;;;;;;;;;;5118659;28;20242;-66
2022/08/04 05:45:12;;;;;;;0.00;0.00;;;;;;;;;;5094963;28;20203;-66
2022/08/04 05:47:39;;;;;;;0.00;0.00;;;;;;;;;;5119111;28;20402;-66
2022/08/04 05:50:06;;;;;;;0.00;0.00;;;;;;;;;;5103162;28;20371;-68
2022/08/04 05:52:34;;;;;;;0.00;0.00;;;;;;;;;;5120048;28;20214;-66
2022/08/04 05:55:01;;;;;;;0.00;0.00;;;;;;;;;;5104145;28;20230;-66
2022/08/04 05:57:29;;;;;;;0.00;0.00;;;;;;;;;;5109720;28;20428;-66
2022/08/04 05:59:57;;;;;;;0.00;0.00;;;;;;;;;;5104518;28;20377;-65
2022/08/04 06:02:24;;;;;;;0.00;0.00;;;;;;;;;;5109703;28;20244;-66
2022/08/04 06:04:51;;;;;;;0.00;0.00;;;;;;;;;;5104415;28;20273;-66
2022/08/04 06:07:17;;;;;;;0.00;0.00;;;;;;;;;;5109431;28;20301;-67
2022/08/04 06:09:44;;;;;;;0.00;0.00;;;;;;;;;;5104304;28;20202;-67
2022/08/04 06:12:14;;;;;;;0.00;0.00;;;;;;;;;;5109501;28;20320;-66
2022/08/04 06:14:43;;;;;;;0.00;0.00;;;;;;;;;;5104134;28;20191;-66
2022/08/04 06:17:11;;;;;;;0.00;0.00;;;;;;;;;;5109270;28;20234;-67
2022/08/04 06:19:39;;;;;;;0.00;0.00;;;;;;;;;;5103930;28;20235;-67
2022/08/04 06:22:06;;;;;;;0.00;0.00;;;;;;;;;;5108960;28;20238;-66
2022/08/04 06:24:33;;;;;;;0.00;0.00;;;;;;;;;;5103880;28;20210;-66
2022/08/04 06:27:00;;;;;;;0.00;0.00;;;;;;;;;;5108326;28;20505;-67
2022/08/04 06:29:33;;;;;;;0.00;0.00;;;;;;;;;;5104588;28;20209;-67
2022/08/04 06:32:12;;;;;;;0.00;0.00;;;;;;;;;;5108268;28;20446;-66
2022/08/04 06:34:38;;;;;;;0.00;0.00;;;;;;;;;;5103604;28;20194;-67
2022/08/04 06:37:06;;;;;;;0.00;0.00;;;;;;;;;;5109046;28;20386;-67
2022/08/04 06:39:33;;;;;;;0.00;0.00;;;;;;;;;;5103999;28;20203;-67
2022/08/04 06:42:00;;;;;;;0.00;0.00;;;;;;;;;;5107995;28;20245;-68
2022/08/04 06:44:28;;;;;;;0.00;0.00;;;;;;;;;;5104222;28;20273;-67
2022/08/04 06:46:54;;;;;;;0.00;0.00;;;;;;;;;;5107110;28;20264;-67
2022/08/04 06:49:24;;;;;;;0.00;0.00;;;;;;;;;;5104916;28;20257;-67
2022/08/04 06:51:51;;;;;;;0.00;0.00;;;;;;;;;;5106689;28;20366;-68
2022/08/04 06:54:17;;;;;;;0.00;0.00;;;;;;;;;;5104927;28;20209;-65
2022/08/04 06:56:44;;;;;;;0.00;0.00;;;;;;;;;;5105991;28;20429;-66
2022/08/04 06:59:11;;;;;;;0.00;0.00;;;;;;;;;;5105869;28;20203;-67
2022/08/04 07:01:37;;;;;;;0.00;0.00;;;;;;;;;;5104711;28;20241;-66
2022/08/04 07:04:04;;;;;;;0.00;0.00;;;;;;;;;;5106859;28;20207;-67
2022/08/04 07:06:32;;;;;;;0.00;0.00;;;;;;;;;;5103950;28;20491;-66
2022/08/04 07:08:59;;;;;;;0.00;0.00;;;;;;;;;;5107508;28;20299;-67
2022/08/04 07:11:26;;;;;;;0.00;0.00;;;;;;;;;;5102894;28;20327;-67
2022/08/04 07:13:53;;;;;;;0.00;0.00;;;;;;;;;;5108235;28;20278;-67
2022/08/04 07:16:20;;;;;;;0.00;0.00;;;;;;;;;;5102117;28;20249;-66
2022/08/04 07:18:47;;;;;;;0.00;0.00;;;;;;;;;;5108793;28;20293;-68
2022/08/04 07:21:19;;;;;;;0.00;0.00;;;;;;;;;;5101108;28;20238;-65
2022/08/04 07:23:47;;;;;;;0.00;0.00;;;;;;;;;;5108966;28;20262;-66
2022/08/04 07:26:14;;;;;;;0.00;0.00;;;;;;;;;;5101203;28;20252;-66
2022/08/04 07:28:41;;;;;;;0.00;0.00;;;;;;;;;;5109353;28;20324;-82
2022/08/04 07:31:10;;;;;;;0.00;0.00;;;;;;;;;;5100692;28;20288;-84
2022/08/04 07:33:36;;;;;;;0.00;0.00;;;;;;;;;;5110231;28;20203;-82
2022/08/04 07:36:03;;;;;;;0.00;0.00;;;;;;;;;;5094442;28;20311;-80
2022/08/04 07:38:29;;;;;;;0.00;0.00;;;;;;;;;;5111122;28;20226;-82
2022/08/04 07:40:57;;;;;;;0.00;0.00;;;;;;;;;;5099407;28;20425;-82
2022/08/04 07:43:26;;;;;;;0.00;0.00;;;;;;;;;;5112131;28;20371;-81
2022/08/04 07:45:52;;;;;;;0.00;0.00;;;;;;;;;;5098134;28;20265;-82
2022/08/04 07:48:21;;;;;;;0.00;0.00;;;;;;;;;;5112358;28;20421;-82
2022/08/04 07:50:48;;;;;;;0.00;0.00;;;;;;;;;;5098018;28;20492;-81
2022/08/04 07:53:16;;;;;;;0.00;0.00;;;;;;;;;;5112918;28;20426;-84
2022/08/04 07:55:43;;;;;;;0.00;0.00;;;;;;;;;;5097691;28;20540;-82
2022/08/04 07:58:11;;;;;;;0.00;0.00;;;;;;;;;;5113665;28;20266;-83
2022/08/04 08:00:38;;;;;;;0.00;0.00;;;;;;;;;;5097075;28;20245;-84
2022/08/04 08:03:05;;;;;;;0.00;0.00;;;;;;;;;;5114122;28;20234;-80
2022/08/04 08:05:32;;;;;;;0.00;0.00;;;;;;;;;;5095500;28;20317;-80
2022/08/04 08:07:59;;;;;;;0.00;0.00;;;;;;;;;;5114994;28;20530;-82
2022/08/04 08:10:25;;;;;;;0.00;0.00;;;;;;;;;;5094785;28;20203;-81
2022/08/04 08:12:52;;;;;;;0.00;0.00;;;;;;;;;;5116545;28;20198;-83
2022/08/04 08:15:20;;;;;;;0.00;0.00;;;;;;;;;;5094625;28;20203;-82
2022/08/04 08:17:47;;;;;;;0.00;0.00;;;;;;;;;;5116613;28;20213;-83
2022/08/04 08:20:14;;;;;;;0.00;0.00;;;;;;;;;;5093685;28;20223;-82
2022/08/04 08:22:40;;;;;;;0.00;0.00;;;;;;;;;;5117445;28;20191;-83
2022/08/04 08:25:07;;;;;;;0.00;0.00;;;;;;;;;;5092663;28;20203;-79
2022/08/04 08:27:34;;;;;;;0.00;0.00;;;;;;;;;;5117663;28;20351;-80
2022/08/04 08:30:00;;;;;;;0.00;0.00;;;;;;;;;;5104362;28;20526;-86
2022/08/04 08:32:28;;;;;;;0.00;0.00;;;;;;;;;;5111460;28;20268;-84
2022/08/04 08:34:55;;;;;;;0.00;0.00;;;;;;;;;;5103496;28;20249;-79
2022/08/04 08:37:25;;;;;;;0.00;0.00;;;;;;;;;;5108045;28;20241;-82
2022/08/04 08:39:54;;;;;;;0.00;0.00;;;;;;;;;;5102453;28;20211;-82
2022/08/04 08:42:50;;;;;;;0.00;0.00;;;;;;;;;;5107877;28;20268;-82
2022/08/04 08:45:43;;;;;;;0.00;0.00;;;;;;;;;;5030693;28;20540;-83
2022/08/04 08:48:31;;;;;;;0.00;0.00;;;;;;;;;;5101814;28;20305;-80
2022/08/04 08:51:10;;;;;;;0.00;0.00;;;;;;;;;;5077559;28;20237;-81
2022/08/04 08:53:45;;;;;;;0.00;0.00;;;;;;;;;;5101587;28;20325;-74
2022/08/04 08:56:14;;;;;;;0.00;0.00;;;;;;;;;;5093276;28;20594;-71
2022/08/04 08:58:49;;;;;;;0.00;0.00;;;;;;;;;;5099539;28;20199;-72
2022/08/04 09:01:22;;;;;;;0.00;0.00;;;;;;;;;;5094572;28;20241;-78
2022/08/04 09:04:16;;;;;;;0.00;0.00;;;;;;;;;;5097135;28;20195;-78
2022/08/04 09:06:54;;;;;;;0.00;0.00;;;;;;;;;;5061180;28;20446;-75
2022/08/04 09:09:36;;;;;;;0.00;0.00;;;;;;;;;;5088736;28;20207;-78
2022/08/04 09:12:07;;;;;;;0.00;0.00;;;;;;;;;;5107161;28;20261;-77
2022/08/04 09:14:39;;;;;;;0.00;0.00;;;;;;;;;;5085159;28;20518;-78
2022/08/04 09:17:07;;;;;;;0.00;0.00;;;;;;;;;;5107614;28;20260;-77
2022/08/04 09:19:36;;;;;;;0.00;0.00;;;;;;;;;;5085532;28;20448;-79
2022/08/04 09:22:09;;;;;;;0.00;0.00;;;;;;;;;;5106374;28;20306;-79
2022/08/04 09:24:42;;;;;;;0.00;0.00;;;;;;;;;;5085502;28;20223;-78
2022/08/04 09:27:14;;;;;;;0.00;0.00;;;;;;;;;;5107715;28;20293;-80
2022/08/04 09:29:43;;;;;;;0.00;0.00;;;;;;;;;;5085591;28;20211;-80
2022/08/04 09:32:13;;;;;;;0.00;0.00;;;;;;;;;;5107264;28;20296;-78
2022/08/04 09:34:43;;;;;;;0.00;0.00;;;;;;;;;;5085136;28;20263;-78
2022/08/04 09:37:17;;;;;;;0.00;0.00;;;;;;;;;;5107414;28;20252;-79
2022/08/04 09:39:49;;;;;;;0.00;0.00;;;;;;;;;;5084986;28;20208;-78
2022/08/04 09:42:20;;;;;;;0.00;0.00;;;;;;;;;;5106463;28;20358;-76
2022/08/04 09:44:52;;;;;;;0.00;0.00;;;;;;;;;;5085289;28;20280;-77
2022/08/04 09:47:22;;;;;;;0.00;0.00;;;;;;;;;;5107230;28;20283;-78
2022/08/04 09:49:52;;;;;;;0.00;0.00;;;;;;;;;;5084929;28;20203;-77
2022/08/04 09:52:26;;;;;;;0.00;0.00;;;;;;;;;;5107221;28;20283;-77
2022/08/04 09:54:59;;;;;;;0.00;0.00;;;;;;;;;;5084756;28;20237;-77
2022/08/04 09:57:33;;;;;;;0.00;0.00;;;;;;;;;;5106614;28;20235;-77
2022/08/04 10:00:02;;;;;;;0.00;0.00;;;;;;;;;;5085134;28;20241;-76
2022/08/04 10:02:32;;;;;;;0.00;0.00;;;;;;;;;;5107031;28;20240;-76
2022/08/04 10:05:00;;;;;;;0.00;0.00;;;;;;;;;;5084625;28;20196;-76
2022/08/04 10:07:38;;;;;;;0.00;0.00;;;;;;;;;;5089934;28;20251;-77
2022/08/04 10:10:20;;;;;;;0.00;0.00;;;;;;;;;;5084558;28;20229;-76
2022/08/04 10:13:03;;;;;;;0.00;0.00;;;;;;;;;;5101972;28;20374;-77
2022/08/04 10:15:33;;;;;;;0.00;0.00;;;;;;;;;;5092779;28;20234;-77
2022/08/04 10:18:08;;;;;;;0.00;0.00;;;;;;;;;;5096317;28;20387;-76
2022/08/04 10:20:43;;;;;;;0.00;0.00;;;;;;;;;;5077739;28;20272;-77
2022/08/04 10:23:16;;;;;;;0.00;0.00;;;;;;;;;;5094531;28;20267;-77
2022/08/04 10:25:48;;;;;;;0.00;0.00;;;;;;;;;;5078419;28;20291;-78
2022/08/04 10:28:16;;;;;;;0.00;0.00;;;;;;;;;;5093733;28;20283;-70
2022/08/04 10:30:56;;;;;;;0.00;0.00;;;;;;;;;;5077621;28;20250;-82
2022/08/04 10:33:24;;;;;;;0.00;0.00;;;;;;;;;;5092581;28;20204;-82
2022/08/04 10:35:52;;;;;;;0.00;0.00;;;;;;;;;;5079206;28;20484;-81
2022/08/04 10:38:23;;;;;;;0.00;0.00;;;;;;;;;;5092870;28;20211;-85
2022/08/04 10:40:51;;;;;;;0.00;0.00;;;;;;;;;;5078988;28;20361;-84
2022/08/04 10:43:22;;;;;;;0.03;0.03;;;;;;;;;;5093078;28;20230;-77
2022/08/04 10:45:59;;;;;;;0.00;0.00;;;;;;;;;;5076247;28;20243;-77
2022/08/04 10:48:34;;;;;;;0.00;0.00;;;;;;;;;;5091706;28;20262;-74
2022/08/04 10:51:04;;;;;;;0.00;0.00;;;;;;;;;;5079504;28;20620;-76
2022/08/04 10:53:34;;;;;;;0.00;0.00;;;;;;;;;;5092153;28;20244;-78
2022/08/04 10:56:03;;;;;;;0.00;0.00;;;;;;;;;;5079145;28;20258;-77
2022/08/04 10:58:33;;;;;;;0.00;0.00;;;;;;;;;;5092438;28;20218;-78
2022/08/04 11:01:03;;;;;;;0.00;0.00;;;;;;;;;;5080103;28;20276;-76
2022/08/04 11:03:34;;;;;;;0.00;0.00;;;;;;;;;;5091682;28;20431;-78
2022/08/04 11:06:02;;;;;;;0.00;0.00;;;;;;;;;;5080466;28;20446;-77
2022/08/04 11:08:33;;;;;;;0.00;0.00;;;;;;;;;;5090721;28;20302;-77
2022/08/04 11:11:02;;;;;;;0.00;0.00;;;;;;;;;;5080234;28;20246;-78
2022/08/04 11:13:30;;;;;;;0.00;0.00;;;;;;;;;;5091690;28;20215;-78
2022/08/04 11:15:59;;;;;;;0.00;0.00;;;;;;;;;;5079674;28;20239;-80
2022/08/04 11:18:29;;;;;;;0.00;0.00;;;;;;;;;;5091604;28;20306;-78
2022/08/04 11:20:58;;;;;;;0.00;0.00;;;;;;;;;;5079615;28;20287;-77
2022/08/04 11:23:27;;;;;;;0.00;0.00;;;;;;;;;;5091647;28;20203;-78
2022/08/04 11:25:57;;;;;;;0.00;0.00;;;;;;;;;;5079446;28;20280;-77
2022/08/04 11:28:30;;;;;;;0.00;0.00;;;;;;;;;;5091754;28;20230;-78
2022/08/04 11:30:59;;;;;;;0.00;0.00;;;;;;;;;;5079594;28;20565;-77
2022/08/04 11:33:29;;;;;;;0.00;0.00;;;;;;;;;;5091583;28;20267;-78
2022/08/04 11:35:57;;;;;;;0.00;0.00;;;;;;;;;;5079520;28;20261;-77
2022/08/04 11:38:26;;;;;;;0.00;0.00;;;;;;;;;;5091588;28;20263;-78
2022/08/04 11:40:57;;;;;;;0.00;0.00;;;;;;;;;;5074190;28;20246;-78
2022/08/04 11:43:27;;;;;;;0.00;0.00;;;;;;;;;;5091328;28;20506;-76
2022/08/04 11:45:55;;;;;;;0.00;0.00;;;;;;;;;;5074495;28;20251;-80
2022/08/04 11:48:25;;;;;;;0.00;0.00;;;;;;;;;;5091866;28;20460;-75
2022/08/04 11:50:53;;;;;;;0.00;0.00;;;;;;;;;;5078031;28;20482;-78
2022/08/04 11:53:21;;;;;;;0.00;0.00;;;;;;;;;;5091766;28;20531;-77
2022/08/04 11:55:51;;;;;;;0.00;0.00;;;;;;;;;;5078384;28;20356;-78
2022/08/04 11:58:17;;;;;;;0.00;0.00;;;;;;;;;;5093195;28;20236;-78
2022/08/04 12:00:53;;;;;;;0.00;0.00;;;;;;;;;;5076807;28;20261;-77
2022/08/04 12:03:27;;;;;;;0.00;0.00;;;;;;;;;;5092810;28;20518;-78
2022/08/04 12:05:58;;;;;;;0.00;0.00;;;;;;;;;;5078449;28;20298;-79
2022/08/04 12:08:36;;;;;;;0.00;0.00;;;;;;;;;;5090571;28;20210;-79
2022/08/04 12:11:09;;;;;;;0.00;0.00;;;;;;;;;;5079412;28;20510;-80
2022/08/04 12:13:39;;;;;;;0.00;0.00;;;;;;;;;;5089849;28;20230;-79
2022/08/04 12:16:10;;;;;;;0.00;0.00;;;;;;;;;;5079183;28;20262;-80
2022/08/04 12:18:39;;;;;;;0.00;0.00;;;;;;;;;;5089878;28;20187;-82
2022/08/04 12:21:09;;;;;;;0.00;0.00;;;;;;;;;;5083235;28;20242;-79
2022/08/04 12:23:37;;;;;;;0.00;0.00;;;;;;;;;;5093186;28;20227;-80
2022/08/04 12:26:06;;;;;;;0.00;0.00;;;;;;;;;;5083976;28;20365;-78
2022/08/04 12:28:36;;;;;;;0.00;0.00;;;;;;;;;;5096608;28;20268;-79
2022/08/04 12:31:07;;;;;;;0.00;0.00;;;;;;;;;;5084433;28;20242;-80
2022/08/04 12:33:40;;;;;;;0.00;0.00;;;;;;;;;;5096835;28;20255;-80
2022/08/04 12:36:12;;;;;;;0.00;0.00;;;;;;;;;;5062164;28;20240;-80
2022/08/04 12:38:48;;;;;;;0.00;0.00;;;;;;;;;;5045283;28;20200;-79
2022/08/04 12:41:16;;;;;;;0.00;0.00;;;;;;;;;;5034927;28;20286;-80
2022/08/04 12:43:43;;;;;;;0.00;0.00;;;;;;;;;;5044446;28;20224;-79
2022/08/04 12:46:10;;;;;;;0.00;0.00;;;;;;;;;;5032771;28;20241;-79
2022/08/04 12:48:39;;;;;;;0.00;0.00;;;;;;;;;;5044925;28;20499;-78
2022/08/04 12:51:08;;;;;;;0.00;0.00;;;;;;;;;;5033455;28;20286;-77
2022/08/04 12:53:37;;;;;;;0.00;0.00;;;;;;;;;;5044177;28;20404;-78
2022/08/04 12:56:04;;;;;;;0.00;0.00;;;;;;;;;;5034018;28;20244;-77
2022/08/04 12:58:33;;;;;;;0.00;0.00;;;;;;;;;;5043659;28;20200;-77
2022/08/04 13:01:00;;;;;;;0.00;0.00;;;;;;;;;;5033979;28;20441;-75
2022/08/04 13:03:28;;;;;;;0.00;0.00;;;;;;;;;;5084335;28;20253;-78
2022/08/04 13:05:56;;;;;;;0.00;0.00;;;;;;;;;;5072267;28;20243;-79
2022/08/04 13:08:23;;;;;;;0.00;0.00;;;;;;;;;;5085544;28;20282;-78
2022/08/04 13:10:52;;;;;;;0.00;0.00;;;;;;;;;;5082403;28;20238;-74
2022/08/04 13:13:19;;;;;;;0.00;0.00;;;;;;;;;;5084460;28;20407;-77
2022/08/04 13:15:56;;;;;;;0.00;0.00;;;;;;;;;;5081227;28;20242;-76
2022/08/04 13:18:23;;;;;;;0.00;0.00;;;;;;;;;;5095153;28;20514;-77
2022/08/04 13:20:49;;;;;;;0.00;0.00;;;;;;;;;;5081224;28;20246;-77
2022/08/04 13:23:17;;;;;;;0.00;0.00;;;;;;;;;;5095277;28;20222;-78
2022/08/04 13:25:45;;;;;;;0.00;0.00;;;;;;;;;;5080704;28;20306;-77
2022/08/04 13:28:13;;;;;;;0.00;0.00;;;;;;;;;;5096326;28;20418;-78
2022/08/04 13:30:40;;;;;;;0.00;0.00;;;;;;;;;;5079655;28;20244;-77
2022/08/04 13:33:07;;;;;;;0.00;0.00;;;;;;;;;;5095927;28;20203;-77
2022/08/04 13:35:34;;;;;;;0.00;0.00;;;;;;;;;;5079504;28;20313;-78
2022/08/04 13:38:01;;;;;;;0.00;0.00;;;;;;;;;;5097348;28;20259;-77
2022/08/04 13:40:30;;;;;;;0.00;0.00;;;;;;;;;;5075663;28;20254;-76
2022/08/04 13:42:56;;;;;;;0.00;0.00;;;;;;;;;;5098180;28;20479;-78
2022/08/04 13:45:24;;;;;;;0.00;0.00;;;;;;;;;;5077027;28;20416;-79
2022/08/04 13:47:51;;;;;;;0.00;0.00;;;;;;;;;;5097742;28;20210;-77
2022/08/04 13:50:22;;;;;;;0.00;0.00;;;;;;;;;;5076112;28;20231;-80
2022/08/04 13:52:51;;;;;;;0.00;0.00;;;;;;;;;;5099929;28;20371;-78
2022/08/04 13:55:19;;;;;;;0.00;0.00;;;;;;;;;;5075781;28;20208;-78
2022/08/04 13:57:49;;;;;;;0.00;0.00;;;;;;;;;;5098401;28;20449;-79
2022/08/04 14:00:17;;;;;;;0.00;0.00;;;;;;;;;;5075815;28;20509;-79
2022/08/04 14:02:44;;;;;;;0.00;0.00;;;;;;;;;;5098920;28;20207;-79
2022/08/04 14:05:14;;;;;;;0.00;0.00;;;;;;;;;;5074842;28;20208;-79
2022/08/04 14:07:42;;;;;;;0.00;0.00;;;;;;;;;;5099221;28;20237;-77
2022/08/04 14:10:10;;;;;;;0.00;0.00;;;;;;;;;;5074298;28;20449;-76
2022/08/04 14:12:43;;;;;;;0.00;0.00;;;;;;;;;;5099290;28;20223;-77
2022/08/04 14:15:29;;;;;;;0.00;0.00;;;;;;;;;;5074472;28;20250;-77
2022/08/04 14:18:15;;;;;;;0.00;0.00;;;;;;;;;;5096633;28;20253;-78
2022/08/04 14:20:57;;;;;;;0.00;0.00;;;;;;;;;;5078459;28;20339;-77
2022/08/04 14:23:23;;;;;;;0.00;0.00;;;;;;;;;;5092471;28;20226;-77
2022/08/04 14:25:50;;;;;;;0.00;0.00;;;;;;;;;;5079560;28;20462;-77
2022/08/04 14:28:27;;;;;;;0.00;0.00;;;;;;;;;;5093118;28;20202;-77
2022/08/04 14:31:08;;;;;;;0.00;0.00;;;;;;;;;;5079755;28;20239;-77
2022/08/04 14:33:37;;;;;;;0.00;0.00;;;;;;;;;;5090852;28;20215;-77
2022/08/04 14:36:03;;;;;;;0.00;0.00;;;;;;;;;;5081000;28;20258;-76
2022/08/04 14:38:41;;;;;;;0.00;0.00;;;;;;;;;;5091607;28;20242;-77
2022/08/04 14:41:07;;;;;;;0.00;0.00;;;;;;;;;;5081715;28;20242;-79
2022/08/04 14:43:40;;;;;;;0.00;0.00;;;;;;;;;;5090636;28;20207;-78
2022/08/04 14:46:08;;;;;;;0.00;0.00;;;;;;;;;;5081421;28;20504;-78
2022/08/04 14:48:35;;;;;;;0.00;0.00;;;;;;;;;;5090694;28;20272;-78
2022/08/04 14:51:02;;;;;;;0.00;0.00;;;;;;;;;;5080597;28;20399;-76
2022/08/04 14:53:29;;;;;;;0.00;0.00;;;;;;;;;;5091386;28;20234;-80
2022/08/04 14:55:56;;;;;;;0.00;0.00;;;;;;;;;;5078398;28;20313;-77
2022/08/04 14:58:23;;;;;;;0.00;0.00;;;;;;;;;;5092273;28;20404;-78
2022/08/04 15:00:50;;;;;;;0.00;0.00;;;;;;;;;;5078644;28;20258;-75
2022/08/04 15:03:18;;;;;;;0.00;0.00;;;;;;;;;;5092421;28;20400;-77
2022/08/04 15:05:45;;;;;;;0.00;0.00;;;;;;;;;;5077712;28;20249;-76
2022/08/04 15:08:13;;;;;;;0.00;0.00;;;;;;;;;;5093101;28;20214;-77
2022/08/04 15:10:39;;;;;;;0.00;0.00;;;;;;;;;;5077026;28;20491;-77